ADDS METAR Data INFO
IDs: Format: Raw Decoded Include TAF

Data at: 2147 UTC 15 Dec 2017

PHMK 152054Z 03009KT 10SM SCT036 SCT050 21/16 A2998 RMK AO2 SLP156 60000 T02110156 50000
PHMK 151954Z 02008KT 10SM FEW038 SCT075 22/15 A2999 RMK AO2 SLP160 T02170150
PHMK 151854Z 36007KT 10SM FEW034 BKN065 20/16 A2999 RMK AO2 PK WND 03026/1813 RAB34E46 SLP161 P0000 T02000156
PHMK 151754Z 04007KT 10SM FEW025 SCT070 19/14 A2998 RMK AO2 RAB26E43 SLP157 P0001 60001 T01890139 10200 20178 53010
PHMK 151654Z 02011G21KT 10SM SCT031 19/13 A2997 RMK AO2 SLP152 T01940133
PHMK 151554Z 35009G24KT 10SM FEW021 SCT030 BKN045 19/14 A2996 RMK AO2 PK WND 35027/1533 SLP148 T01890139
PHMK 151454Z AUTO 36017G27KT 10SM FEW030 FEW050 SCT065 19/13 A2995 RMK AO2 PK WND 01031/1355 RAB1358E10 SLP146 P0000 60000 T01890133 55013 TSNO $
PHMK 151354Z AUTO 01019G26KT 10SM SCT060 19/13 A2994 RMK AO2 PK WND 35028/1342 SLP145 T01890133 TSNO
PHMK 151254Z AUTO 36011G23KT 10SM SCT037 BKN055 19/12 A2997 RMK AO2 PK WND 36026/1218 SLP151 T01940122 TSNO
PHMK 151154Z AUTO 01012G25KT 10SM SCT040 20/11 A2999 RMK AO2 PK WND 36029/1127 SLP158 T02000106 10206 20194 58021 TSNO
PHMK 151054Z AUTO 02012G21KT 10SM SCT043 SCT055 20/11 A3001 RMK AO2 SLP167 T02000106 TSNO
PHMK 150954Z AUTO 01013G21KT 10SM FEW050 19/09 A3004 RMK AO2 PK WND 01027/0932 SLP175 T01940094 402330189 TSNO
PHMK 150854Z AUTO 01013G22KT 10SM CLR 20/11 A3005 RMK AO2 PK WND 36026/0831 SLP180 T02000106 50001 TSNO
PHMK 150754Z AUTO 02014G21KT 10SM SCT042 BKN055 20/12 A3007 RMK AO2 SLP185 T02000117 TSNO
PHMK 150654Z AUTO 01014G27KT 10SM SCT035 BKN046 BKN055 20/13 A3005 RMK AO2 PK WND 01029/0605 SLP181 T02000133 TSNO
PHMK 150554Z AUTO 02012G23KT 10SM FEW035 SCT060 20/12 A3005 RMK AO2 PK WND 01026/0514 SLP180 60000 T02000117 10222 20200 53014 TSNO
PHMK 150454Z AUTO 02016G28KT 10SM FEW049 20/09 A3003 RMK AO2 PK WND 02028/0449 SLP174 T02000094 TSNO
PHMK 150354Z 02012G21KT 10SM SCT049 20/10 A3002 RMK AO2 PK WND 04028/0317 SLP171 T02000100
PHMK 150254Z 01014G25KT 10SM FEW038 BKN048 21/12 A3001 RMK AO2 SLP166 60000 T02060117 55005
PHMK 150154Z 02017G26KT 10SM SCT042 OVC050 21/12 A3000 RMK AO2 PK WND 01029/0101 SLP163 T02110117
PHMK 150054Z 01018G28KT 10SM BKN035 BKN042 OVC049 21/13 A3000 RMK AO2 PK WND 04029/0003 RAB30E44 SLP163 P0000 T02110133
PHMK 142354Z 02018G25KT 10SM FEW026 SCT034 BKN060 22/15 A3002 RMK AO2 PK WND 36026/2333 RAB2258E08 SLP169 P0000 60000 T02220150 10233 20194 58024
PHMK 142254Z 03013G23KT 10SM SCT034 SCT055 BKN065 23/16 A3004 RMK AO2 PK WND 36027/2219 SLP177 T02280156
PHMK 142154Z 02013G25KT 10SM FEW028 SCT033 BKN047 21/15 A3008 RMK AO2 SLP190 T02110150
PHMK 142054Z 02013G22KT 10SM SCT033 23/14 A3009 RMK AO2 PK WND 36026/2001 SLP194 T02280144 50002
PHMK 141954Z 02015G24KT 10SM FEW033 SCT047 22/14 A3011 RMK AO2 PK WND 04028/1907 SLP201 T02170139
PHMK 141854Z 04014G24KT 10SM FEW023 SCT032 BKN040 21/14 A3009 RMK AO2 SLP192 T02060144
PHMK 141754Z 03010G18KT 10SM FEW022 SCT037 BKN055 19/16 A3009 RMK AO2 SLP193 60000 T01940156 10200 20189 51012
PHMK 141654Z 02010G22KT 10SM FEW027 SCT032 BKN060 19/14 A3008 RMK AO2 SLP190 T01940144
PHMK 141554Z 02013G21KT 10SM FEW030 SCT040 19/14 A3007 RMK AO2 SLP186 T01940144 $
PHMK 141454Z AUTO 02013G20KT 10SM SCT026 BKN033 19/15 A3005 RMK AO2 RAE1358 SLP180 P0000 60000 T01940150 58008 TSNO $
PHMK 141354Z AUTO 01013G23KT 10SM -RA FEW023 BKN035 BKN043 19/16 A3006 RMK AO2 RAB18 SLP183 P0000 T01890156 TSNO $
PHMK 141254Z AUTO 02010G18KT 10SM FEW024 SCT033 BKN043 20/14 A3007 RMK AO2 SLP184 T02000139 TSNO $
PHMK 141154Z AUTO 04013G22KT 10SM FEW025 SCT043 BKN050 19/15 A3008 RMK AO2 RAB32E42 SLP188 P0000 60000 T01890150 10206 20189 TSNO $
PHMK 141054Z AUTO 02011G20KT 10SM SCT025 BKN032 20/15 A3007 RMK AO2 SLP185 T02000150 TSNO $
PHMK 141035Z AUTO 02010G22KT 10SM FEW024 BKN029 BKN037 20/14 A3007 RMK AO2 T02000139 TSNO $
PHMK 140954Z AUTO 01012G22KT 10SM 20/15 A3008 RMK AO2 SLP188 T02000150 402440200 TSNO $